Southwest, Pennsylvania
Current Conditions -  °F | °C
As of 7:45 AM on Thursday 27 Nov 2014 (Local Time) from KLBE Reporting Station
Light Rain Light Rain  
Wind Chill: 26°   Ceiling: 2700
Heat Index: 32°   Visibility: 3mi
Dew Point: 32°   Wind: 7mph
Humidity: 100%   Direction: 270°W
Pressure: 30.04"   Gusts: NA
Location:  40.2°N, 79.52°W
Report Text: KLBE 271245Z 27006KT 3SM -RA SCT006 OVC027 00/00 A3004
Loading
Personal Weather Stations






























Interactive Weather Map New forecast layout! Learn more

10-Day Weather Forecast

Advertisements
Track Severe Weather on mobile